Time;durP1;ratioP1;P1;durP2;ratioP2;P2;SDS_P1;SDS_P2;PMS_P1;PMS_P2;Temp;Humidity;BMP_temperature;BMP_pressure;BME280_temperature;BME280_humidity;BME280_pressure;Samples;Min_cycle;Max_cycle;Signal;HPM_P1;HPM_P2
2023/12/10 00:00:07;;;;;;;3.63;0.93;;;22.90;43.50;;;;;;3111298;28;20518;-44
2023/12/10 00:01:39;;;;;;;;;;;22.90;43.50;;;;;;3111056;28;20046;-43
2023/12/10 00:03:10;;;;;;;2.33;1.00;;;22.90;43.50;;;;;;3110398;28;19921;-43
2023/12/10 00:04:42;;;;;;;1.30;1.10;;;22.90;43.40;;;;;;3108141;28;20057;-47
2023/12/10 00:06:15;;;;;;;1.73;1.20;;;;;;;;;;3110299;28;20534;-45
2023/12/10 00:07:45;;;;;;;3.83;1.25;;;22.80;43.10;;;;;;3111065;28;20065;-44
2023/12/10 00:09:17;;;;;;;1.95;0.98;;;22.80;43.50;;;;;;3110838;28;20050;-43
2023/12/10 00:10:48;;;;;;;2.33;1.20;;;22.80;43.40;;;;;;3111176;28;20412;-43
2023/12/10 00:12:20;;;;;;;1.40;1.10;;;22.80;43.40;;;;;;3110222;28;20041;-43
2023/12/10 00:13:51;;;;;;;4.05;1.13;;;22.80;43.40;;;;;;3110682;28;20076;-45
2023/12/10 00:15:22;;;;;;;1.20;0.93;;;22.70;42.90;;;;;;3110765;28;20046;-44
2023/12/10 00:16:54;;;;;;;1.38;1.10;;;22.80;43.40;;;;;;3110616;28;20049;-43
2023/12/10 00:18:28;;;;;;;1.60;1.23;;;22.90;43.20;;;;;;3109635;28;20069;-43
2023/12/10 00:19:58;;;;;;;2.28;1.00;;;22.70;43.30;;;;;;3110851;28;20088;-43
2023/12/10 00:21:30;;;;;;;2.10;1.05;;;22.80;43.50;;;;;;3110899;28;20705;-43
2023/12/10 00:23:01;;;;;;;1.67;1.00;;;22.70;43.40;;;;;;3109983;28;20056;-43
2023/12/10 00:24:32;;;;;;;1.55;1.05;;;22.80;43.30;;;;;;3110460;28;20543;-43
2023/12/10 00:26:03;;;;;;;2.67;1.25;;;22.80;43.90;;;;;;3110628;28;20054;-42
2023/12/10 00:27:35;;;;;;;1.80;1.10;;;22.80;43.30;;;;;;3110723;28;20049;-44
2023/12/10 00:29:06;;;;;;;2.25;0.93;;;;;;;;;;3110240;28;20054;-43
2023/12/10 00:30:40;;;;;;;1.52;1.00;;;22.70;42.70;;;;;;3110714;28;20543;-43
2023/12/10 00:32:12;;;;;;;0.88;0.88;;;22.70;43.30;;;;;;3110687;28;20045;-43
2023/12/10 00:33:44;;;;;;;2.80;1.10;;;22.60;43.30;;;;;;3110630;28;20049;-45
2023/12/10 00:35:14;;;;;;;1.60;0.90;;;22.70;43.30;;;;;;3110493;28;20073;-45
2023/12/10 00:36:46;;;;;;;1.17;0.88;;;22.60;43.90;;;;;;3110500;28;20403;-44
2023/12/10 00:38:17;;;;;;;1.45;1.00;;;22.60;43.30;;;;;;3110606;28;20077;-44
2023/12/10 00:39:48;;;;;;;1.70;1.10;;;22.60;43.30;;;;;;3109970;28;20054;-44
2023/12/10 00:41:19;;;;;;;1.27;1.00;;;22.60;43.30;;;;;;3109969;28;20057;-45
2023/12/10 00:42:51;;;;;;;1.13;1.00;;;22.60;43.40;;;;;;3109023;28;20053;-43
2023/12/10 00:44:21;;;;;;;1.52;1.05;;;22.50;43.50;;;;;;3110431;28;20483;-43
2023/12/10 00:45:53;;;;;;;1.73;1.20;;;22.50;43.50;;;;;;3110745;28;20058;-43
2023/12/10 00:47:25;;;;;;;2.05;0.95;;;22.40;43.50;;;;;;3110146;28;20064;-45
2023/12/10 00:48:57;;;;;;;1.92;1.10;;;22.40;43.50;;;;;;3110317;28;20061;-43
2023/12/10 00:50:27;;;;;;;1.00;0.90;;;22.40;43.50;;;;;;3109919;28;20042;-43
2023/12/10 00:51:59;;;;;;;1.35;1.00;;;22.40;43.50;;;;;;3110318;28;20042;-43
2023/12/10 00:53:29;;;;;;;2.35;1.17;;;22.40;43.60;;;;;;3109505;28;20050;-43
2023/12/10 00:55:01;;;;;;;1.30;0.93;;;22.40;43.40;;;;;;3110339;28;20050;-46
2023/12/10 00:56:32;;;;;;;0.95;0.80;;;22.40;43.40;;;;;;3109077;28;20057;-43
2023/12/10 00:58:03;;;;;;;1.45;0.93;;;22.40;43.50;;;;;;3109215;28;20053;-42
2023/12/10 00:59:35;;;;;;;2.35;0.90;;;22.30;43.50;;;;;;3109890;28;20046;-42
2023/12/10 01:01:07;;;;;;;1.35;1.10;;;22.30;43.40;;;;;;3107633;28;20046;-45
2023/12/10 01:02:40;;;;;;;1.58;1.10;;;22.30;43.60;;;;;;3108752;28;20077;-44
2023/12/10 01:04:12;;;;;;;2.10;1.00;;;22.30;43.40;;;;;;3108564;28;20426;-47
2023/12/10 01:05:43;;;;;;;1.80;1.00;;;22.30;43.60;;;;;;3110290;28;20045;-43
2023/12/10 01:07:16;;;;;;;1.50;0.85;;;22.20;43.60;;;;;;3109944;28;20045;-42
2023/12/10 01:08:47;;;;;;;1.00;0.93;;;22.20;43.70;;;;;;3110527;28;20079;-45
2023/12/10 01:10:19;;;;;;;1.33;0.95;;;22.30;43.60;;;;;;3109081;28;20092;-43
2023/12/10 01:11:51;;;;;;;1.00;0.90;;;22.30;43.50;;;;;;3110192;28;20054;-42
2023/12/10 01:13:24;;;;;;;1.00;0.90;;;22.20;43.60;;;;;;3108838;28;20077;-43
2023/12/10 01:14:56;;;;;;;1.08;0.82;;;22.20;43.60;;;;;;3109768;28;20381;-42
2023/12/10 01:16:28;;;;;;;2.33;0.88;;;22.00;43.80;;;;;;3109566;28;20508;-45
2023/12/10 01:18:00;;;;;;;1.20;1.10;;;22.00;43.90;;;;;;3109391;28;20046;-44
2023/12/10 01:19:32;;;;;;;1.15;0.90;;;22.10;43.90;;;;;;3109766;28;20550;-43
2023/12/10 01:21:03;;;;;;;1.42;0.90;;;22.00;43.80;;;;;;3109965;28;20057;-43
2023/12/10 01:22:35;;;;;;;1.52;0.90;;;22.00;43.90;;;;;;3109828;28;20485;-42
2023/12/10 01:24:06;;;;;;;2.95;1.15;;;22.10;43.70;;;;;;3109584;28;20077;-43
2023/12/10 01:25:37;;;;;;;1.10;0.93;;;22.10;43.70;;;;;;3110537;28;20630;-42
2023/12/10 01:27:09;;;;;;;1.30;0.98;;;22.00;43.80;;;;;;3109679;28;20045;-44
2023/12/10 01:28:41;;;;;;;;;;;22.00;43.80;;;;;;3108674;28;20042;-46
2023/12/10 01:30:13;;;;;;;1.35;1.00;;;22.00;43.70;;;;;;3110135;28;19933;-43
2023/12/10 01:31:45;;;;;;;1.50;0.90;;;22.00;43.60;;;;;;3109591;28;20061;-43
2023/12/10 01:33:17;;;;;;;1.00;0.90;;;22.00;43.70;;;;;;3109098;28;20053;-44
2023/12/10 01:34:49;;;;;;;1.40;1.00;;;22.00;43.70;;;;;;3109745;28;20451;-43
2023/12/10 01:36:22;;;;;;;1.00;0.90;;;22.00;43.60;;;;;;3109883;28;20058;-43
2023/12/10 01:37:54;;;;;;;1.33;0.85;;;21.90;43.80;;;;;;3109537;28;20053;-43
2023/12/10 01:39:25;;;;;;;1.60;1.05;;;22.00;43.70;;;;;;3109422;28;20046;-42
2023/12/10 01:40:57;;;;;;;1.35;0.95;;;21.90;43.70;;;;;;3109419;28;20049;-43
2023/12/10 01:42:27;;;;;;;2.13;0.90;;;22.00;43.70;;;;;;3107761;28;20510;-44
2023/12/10 01:43:59;;;;;;;1.08;0.82;;;22.10;43.60;;;;;;3109832;28;20053;-42
2023/12/10 01:45:30;;;;;;;1.23;0.90;;;22.00;43.50;;;;;;3109949;28;20057;-43
2023/12/10 01:47:02;;;;;;;0.93;0.80;;;22.00;43.60;;;;;;3109675;28;20049;-43
2023/12/10 01:48:34;;;;;;;1.05;0.88;;;22.00;43.50;;;;;;3110079;28;20057;-42
2023/12/10 01:50:11;;;;;;;0.70;0.70;;;21.90;43.50;;;;;;3108656;28;20060;-42
2023/12/10 01:51:42;;;;;;;1.10;1.00;;;21.90;43.60;;;;;;3108783;28;20057;-45
2023/12/10 01:53:13;;;;;;;1.23;0.90;;;21.80;43.80;;;;;;3109554;28;20053;-44
2023/12/10 01:54:44;;;;;;;1.15;1.00;;;21.90;43.80;;;;;;3109793;28;20048;-43
2023/12/10 01:56:16;;;;;;;0.95;0.70;;;21.90;43.70;;;;;;3107504;28;20049;-43
2023/12/10 01:57:47;;;;;;;0.85;0.80;;;21.80;43.80;;;;;;3109741;28;20100;-43
2023/12/10 01:59:19;;;;;;;1.10;0.90;;;21.80;43.70;;;;;;3108100;28;20046;-43
2023/12/10 02:00:50;;;;;;;1.85;0.88;;;21.80;43.80;;;;;;3109849;28;20630;-44
2023/12/10 02:02:21;;;;;;;1.00;0.90;;;21.70;43.80;;;;;;3109473;28;20048;-43
2023/12/10 02:03:54;;;;;;;1.25;0.80;;;21.70;43.90;;;;;;3109307;28;20531;-46
2023/12/10 02:05:25;;;;;;;1.52;1.00;;;21.80;43.80;;;;;;3110017;28;20492;-47
2023/12/10 02:06:56;;;;;;;1.25;0.88;;;21.80;43.90;;;;;;3109331;28;20050;-42
2023/12/10 02:08:29;;;;;;;1.00;0.90;;;21.70;43.90;;;;;;3109316;28;20394;-44
2023/12/10 02:10:00;;;;;;;1.27;1.00;;;21.80;43.70;;;;;;3106449;28;20054;-43
2023/12/10 02:11:32;;;;;;;0.90;0.90;;;21.80;43.70;;;;;;3109098;28;20073;-43
2023/12/10 02:13:03;;;;;;;1.38;0.80;;;21.80;43.70;;;;;;3108604;28;20053;-45
2023/12/10 02:14:37;;;;;;;1.83;0.90;;;21.70;43.70;;;;;;3109239;28;20053;-43
2023/12/10 02:16:08;;;;;;;1.05;0.82;;;21.80;43.60;;;;;;3108549;28;20080;-43
2023/12/10 02:17:39;;;;;;;0.80;0.80;;;21.80;43.70;;;;;;3109806;28;20042;-42
2023/12/10 02:19:11;;;;;;;0.70;0.70;;;21.80;43.80;;;;;;3109806;28;20416;-42
2023/12/10 02:20:43;;;;;;;1.85;0.80;;;21.70;43.80;;;;;;3109408;28;20041;-42
2023/12/10 02:22:14;;;;;;;1.20;0.90;;;21.70;43.90;;;;;;3109506;28;20046;-43
2023/12/10 02:23:50;;;;;;;1.65;0.98;;;21.70;43.90;;;;;;3108161;28;20041;-43
2023/12/10 02:25:28;;;;;;;1.02;0.80;;;21.70;43.80;;;;;;3110728;28;20501;-45
2023/12/10 02:27:00;;;;;;;0.90;0.80;;;21.60;43.80;;;;;;3111957;28;20049;-42
2023/12/10 02:28:33;;;;;;;1.10;0.80;;;21.60;43.90;;;;;;3112295;28;20071;-43
2023/12/10 02:30:07;;;;;;;0.82;0.80;;;21.60;43.80;;;;;;3111152;28;20483;-43
2023/12/10 02:31:38;;;;;;;1.50;0.80;;;21.70;43.70;;;;;;3111092;28;20072;-44
2023/12/10 02:33:09;;;;;;;1.08;0.80;;;21.60;43.80;;;;;;3111536;28;20064;-42
2023/12/10 02:34:40;;;;;;;1.10;0.80;;;21.70;43.60;;;;;;3112175;28;20411;-45
2023/12/10 02:36:12;;;;;;;0.90;0.73;;;21.70;43.50;;;;;;3111818;28;20041;-45
2023/12/10 02:37:42;;;;;;;1.15;0.90;;;21.60;43.80;;;;;;3111730;28;20513;-42
2023/12/10 02:39:14;;;;;;;0.85;0.70;;;21.60;43.80;;;;;;3111821;28;20042;-43
2023/12/10 02:40:46;;;;;;;1.00;0.90;;;21.50;43.80;;;;;;3111437;28;20042;-44
2023/12/10 02:42:18;;;;;;;1.00;0.85;;;21.60;43.90;;;;;;3110874;28;20097;-45
2023/12/10 02:43:52;;;;;;;0.88;0.80;;;21.50;43.90;;;;;;3111381;28;20053;-43
2023/12/10 02:45:23;;;;;;;0.85;0.85;;;21.50;43.90;;;;;;3111867;28;20081;-43
2023/12/10 02:46:54;;;;;;;0.80;0.77;;;21.50;44.00;;;;;;3111528;28;20050;-42
2023/12/10 02:48:25;;;;;;;0.70;0.70;;;21.50;43.80;;;;;;3111948;28;20416;-43
2023/12/10 02:49:57;;;;;;;1.10;0.80;;;21.50;43.90;;;;;;3111167;28;20046;-43
2023/12/10 02:51:27;;;;;;;0.77;0.73;;;21.50;43.90;;;;;;3111572;28;20496;-43
2023/12/10 02:52:59;;;;;;;1.00;0.90;;;21.50;43.90;;;;;;3111952;28;20038;-43
2023/12/10 02:54:29;;;;;;;0.70;0.70;;;21.50;43.90;;;;;;3111718;28;20060;-43
2023/12/10 02:56:02;;;;;;;1.10;0.80;;;21.40;43.90;;;;;;3111791;28;20049;-45
2023/12/10 02:57:33;;;;;;;0.93;0.70;;;21.50;43.80;;;;;;3111663;28;20054;-43
2023/12/10 02:59:05;;;;;;;0.85;0.70;;;21.40;43.80;;;;;;3110720;28;20053;-43
2023/12/10 03:00:35;;;;;;;0.70;0.60;;;21.40;43.80;;;;;;3111590;28;20053;-43
2023/12/10 03:02:07;;;;;;;0.75;0.75;;;21.50;43.90;;;;;;3111780;28;20558;-42
2023/12/10 03:03:38;;;;;;;0.93;0.70;;;21.40;43.80;;;;;;3110873;28;20050;-43
2023/12/10 03:05:09;;;;;;;1.80;0.82;;;21.40;43.80;;;;;;3111756;28;20053;-42
2023/12/10 03:06:40;;;;;;;0.80;0.80;;;21.40;43.90;;;;;;3109726;28;20050;-43
2023/12/10 03:08:11;;;;;;;0.75;0.73;;;21.30;44.00;;;;;;3111412;28;20056;-42
2023/12/10 03:09:44;;;;;;;0.80;0.70;;;21.40;44.00;;;;;;3110944;28;20046;-42
2023/12/10 03:11:17;;;;;;;0.75;0.75;;;21.30;44.00;;;;;;3109122;28;20050;-43
2023/12/10 03:12:48;;;;;;;0.75;0.73;;;21.40;44.00;;;;;;3110587;28;20057;-43
2023/12/10 03:14:19;;;;;;;1.27;0.75;;;21.40;44.00;;;;;;3110329;28;20643;-42
2023/12/10 03:15:51;;;;;;;0.80;0.60;;;21.40;43.90;;;;;;3109449;28;20049;-42
2023/12/10 03:17:21;;;;;;;1.10;0.88;;;21.40;43.90;;;;;;3109011;28;20057;-46
2023/12/10 03:18:53;;;;;;;1.00;0.80;;;21.40;44.00;;;;;;3111123;28;20041;-42
2023/12/10 03:20:23;;;;;;;1.10;0.75;;;21.40;44.00;;;;;;3111742;28;20531;-44
2023/12/10 03:21:55;;;;;;;0.88;0.80;;;21.40;43.80;;;;;;3111389;28;20049;-42
2023/12/10 03:23:26;;;;;;;1.05;0.82;;;21.40;43.70;;;;;;3111078;28;20081;-44
2023/12/10 03:24:57;;;;;;;1.10;0.73;;;21.30;43.90;;;;;;3111225;28;20049;-42
2023/12/10 03:26:29;;;;;;;0.65;0.63;;;21.30;43.90;;;;;;3110148;28;20412;-43
2023/12/10 03:28:01;;;;;;;1.20;0.93;;;21.30;44.00;;;;;;3111243;28;20077;-43
2023/12/10 03:29:31;;;;;;;0.70;0.68;;;21.20;44.00;;;;;;3110433;28;20288;-42
2023/12/10 03:31:03;;;;;;;0.90;0.70;;;21.30;43.90;;;;;;3111444;28;20046;-42
2023/12/10 03:32:34;;;;;;;0.77;0.77;;;21.30;44.00;;;;;;3111420;28;20500;-45
2023/12/10 03:34:06;;;;;;;1.88;1.00;;;21.20;43.90;;;;;;3111322;28;20117;-42
2023/12/10 03:35:36;;;;;;;0.85;0.70;;;21.20;43.90;;;;;;3111318;28;20054;-44
2023/12/10 03:37:08;;;;;;;0.70;0.70;;;21.20;44.60;;;;;;3109465;28;20053;-42
2023/12/10 03:38:39;;;;;;;0.90;0.80;;;21.20;44.00;;;;;;3111394;28;20054;-43
2023/12/10 03:40:12;;;;;;;0.70;0.70;;;21.10;44.00;;;;;;3110930;28;20046;-42
2023/12/10 03:41:44;;;;;;;0.93;0.80;;;21.20;43.90;;;;;;3110978;28;20061;-44
2023/12/10 03:43:15;;;;;;;0.93;0.80;;;21.20;43.90;;;;;;3110557;28;20092;-42
2023/12/10 03:44:46;;;;;;;1.00;0.90;;;21.20;44.00;;;;;;3110716;28;20838;-42
2023/12/10 03:46:17;;;;;;;0.73;0.70;;;21.20;44.00;;;;;;3110962;28;20056;-45
2023/12/10 03:47:48;;;;;;;0.70;0.70;;;21.10;44.10;;;;;;3111154;28;20046;-41
2023/12/10 03:49:20;;;;;;;0.90;0.80;;;21.10;44.20;;;;;;3111074;28;20045;-45
2023/12/10 03:50:51;;;;;;;1.08;0.80;;;21.10;44.00;;;;;;3110790;28;20046;-42
2023/12/10 03:52:22;;;;;;;0.95;0.73;;;21.10;44.00;;;;;;3110655;28;20041;-42
2023/12/10 03:53:53;;;;;;;0.90;0.70;;;21.10;44.20;;;;;;3110230;28;20053;-45
2023/12/10 03:55:25;;;;;;;0.90;0.80;;;21.00;44.20;;;;;;3110227;28;20050;-42
2023/12/10 03:56:57;;;;;;;1.10;0.88;;;21.10;44.20;;;;;;3110739;28;20050;-42
2023/12/10 03:58:28;;;;;;;0.90;0.83;;;21.10;44.10;;;;;;3110884;28;20046;-42
2023/12/10 03:59:59;;;;;;;0.90;0.80;;;21.10;44.10;;;;;;3110911;28;20301;-43
2023/12/10 04:01:31;;;;;;;1.08;0.80;;;21.10;44.10;;;;;;3109877;28;20064;-42
2023/12/10 04:03:01;;;;;;;0.73;0.60;;;21.10;43.90;;;;;;3110967;28;20429;-45
2023/12/10 04:04:33;;;;;;;1.00;0.70;;;20.90;44.60;;;;;;3108849;28;20045;-43
2023/12/10 04:06:04;;;;;;;0.70;0.70;;;20.70;45.30;;;;;;3111089;28;20053;-44
2023/12/10 04:07:36;;;;;;;0.70;0.70;;;20.60;45.70;;;;;;3110864;28;20042;-42
2023/12/10 04:09:06;;;;;;;0.88;0.70;;;20.60;46.20;;;;;;3111068;28;20049;-42
2023/12/10 04:10:38;;;;;;;0.70;0.70;;;20.50;46.60;;;;;;3111050;28;20120;-42
2023/12/10 04:12:10;;;;;;;1.35;0.70;;;;;;;;;;3110696;28;20057;-42
2023/12/10 04:13:42;;;;;;;0.75;0.68;;;20.80;46.00;;;;;;3110775;28;20124;-42
2023/12/10 04:15:13;;;;;;;0.80;0.80;;;21.00;46.30;;;;;;3110886;28;20052;-42
2023/12/10 04:16:44;;;;;;;1.25;0.73;;;21.10;46.20;;;;;;3110719;28;20045;-42
2023/12/10 04:18:15;;;;;;;0.70;0.70;;;21.20;46.10;;;;;;3111070;28;20104;-42
2023/12/10 04:19:47;;;;;;;0.98;0.80;;;21.30;46.00;;;;;;3110685;28;20049;-45
2023/12/10 04:21:18;;;;;;;0.70;0.65;;;21.40;45.90;;;;;;3110835;28;20407;-42
2023/12/10 04:22:50;;;;;;;1.00;0.85;;;21.50;46.20;;;;;;3110345;28;20046;-42
2023/12/10 04:24:22;;;;;;;0.95;0.70;;;21.50;45.80;;;;;;3110429;28;20073;-42
2023/12/10 04:25:52;;;;;;;0.80;0.80;;;21.60;45.70;;;;;;3110279;28;20045;-47
2023/12/10 04:27:25;;;;;;;2.05;0.70;;;21.70;45.70;;;;;;3110124;28;20045;-43
2023/12/10 04:28:56;;;;;;;3.53;0.60;;;21.70;45.60;;;;;;3110543;28;20053;-45
2023/12/10 04:30:28;;;;;;;0.70;0.70;;;21.80;45.70;;;;;;3110453;28;20046;-43
2023/12/10 04:31:58;;;;;;;1.00;0.70;;;21.80;45.60;;;;;;3110376;28;20050;-42
2023/12/10 04:33:30;;;;;;;1.10;0.70;;;21.90;45.50;;;;;;3109615;28;20042;-43
2023/12/10 04:35:02;;;;;;;0.50;0.50;;;21.90;45.40;;;;;;3107978;28;20048;-44
2023/12/10 04:36:33;;;;;;;0.93;0.60;;;22.00;45.40;;;;;;3110248;28;20046;-42
2023/12/10 04:38:04;;;;;;;0.80;0.70;;;22.00;45.40;;;;;;3110564;28;20073;-43
2023/12/10 04:39:35;;;;;;;0.93;0.65;;;22.00;45.50;;;;;;3110456;28;20042;-42
2023/12/10 04:41:06;;;;;;;1.20;0.60;;;22.10;45.40;;;;;;3110043;28;20050;-43
2023/12/10 04:42:39;;;;;;;1.92;0.63;;;22.10;45.50;;;;;;3108300;28;20053;-42
2023/12/10 04:44:10;;;;;;;0.93;0.70;;;22.10;45.40;;;;;;3110288;28;20053;-45
2023/12/10 04:45:42;;;;;;;0.73;0.60;;;22.10;45.40;;;;;;3110503;28;20042;-42
2023/12/10 04:47:12;;;;;;;0.93;0.50;;;22.20;45.30;;;;;;3110211;28;20412;-44
2023/12/10 04:48:44;;;;;;;1.10;0.70;;;22.20;45.30;;;;;;3110654;28;20288;-42
2023/12/10 04:50:14;;;;;;;0.80;0.60;;;22.30;45.30;;;;;;3110662;28;20462;-42
2023/12/10 04:51:46;;;;;;;0.85;0.60;;;22.30;45.30;;;;;;3110314;28;20096;-50
2023/12/10 04:53:17;;;;;;;1.17;0.68;;;22.30;45.30;;;;;;3110122;28;20049;-42
2023/12/10 04:54:48;;;;;;;1.20;0.60;;;22.40;45.30;;;;;;3110613;28;20129;-45
2023/12/10 04:56:19;;;;;;;0.65;0.60;;;22.40;45.20;;;;;;3110204;28;20056;-43
2023/12/10 04:57:52;;;;;;;0.90;0.77;;;22.40;45.20;;;;;;3110384;28;20053;-44
2023/12/10 04:59:23;;;;;;;1.35;0.60;;;22.40;45.30;;;;;;3110107;28;20050;-43
2023/12/10 05:00:54;;;;;;;1.25;0.60;;;22.40;45.40;;;;;;3109899;28;20516;-42
2023/12/10 05:02:25;;;;;;;0.60;0.60;;;22.40;45.40;;;;;;3109770;28;20046;-43
2023/12/10 05:03:57;;;;;;;0.93;0.73;;;22.40;45.60;;;;;;3110055;28;20412;-43
2023/12/10 05:05:30;;;;;;;0.73;0.70;;;22.40;45.80;;;;;;3108707;28;20052;-42
2023/12/10 05:07:02;;;;;;;0.82;0.70;;;22.60;45.80;;;;;;3109607;28;20124;-48
2023/12/10 05:08:35;;;;;;;1.20;0.80;;;22.60;45.70;;;;;;3110548;28;20500;-44
2023/12/10 05:10:07;;;;;;;1.58;0.70;;;22.70;45.70;;;;;;3108797;28;20499;-43
2023/12/10 05:11:38;;;;;;;0.90;0.73;;;22.70;45.70;;;;;;3110097;28;20436;-47
2023/12/10 05:13:11;;;;;;;0.77;0.60;;;22.70;45.70;;;;;;3109849;28;20045;-43
2023/12/10 05:14:42;;;;;;;0.70;0.70;;;22.70;45.80;;;;;;3110453;28;20484;-44
2023/12/10 05:16:14;;;;;;;0.95;0.70;;;22.70;45.80;;;;;;3110006;28;20042;-46
2023/12/10 05:17:44;;;;;;;1.20;0.77;;;22.70;45.70;;;;;;3110276;28;20057;-45
2023/12/10 05:19:16;;;;;;;0.70;0.70;;;22.80;45.70;;;;;;3110389;28;20072;-43
2023/12/10 05:20:47;;;;;;;0.60;0.60;;;22.80;45.70;;;;;;3110343;28;20420;-43
2023/12/10 05:22:20;;;;;;;0.70;0.60;;;22.90;45.70;;;;;;3109485;28;20041;-43
2023/12/10 05:23:55;;;;;;;0.80;0.70;;;22.90;45.60;;;;;;3109910;28;20061;-43
2023/12/10 05:25:28;;;;;;;0.60;0.50;;;23.00;45.60;;;;;;3107559;28;20045;-43
2023/12/10 05:27:00;;;;;;;1.15;0.80;;;23.00;45.50;;;;;;3110054;28;20594;-42
2023/12/10 05:28:33;;;;;;;0.70;0.70;;;23.10;45.60;;;;;;3110117;28;20052;-43
2023/12/10 05:30:05;;;;;;;0.70;0.60;;;23.10;45.50;;;;;;3110227;28;20050;-42
2023/12/10 05:31:36;;;;;;;0.82;0.60;;;23.10;45.50;;;;;;3110218;28;20416;-43
2023/12/10 05:33:07;;;;;;;0.88;0.70;;;23.10;45.50;;;;;;3110044;28;20049;-46
2023/12/10 05:34:39;;;;;;;1.05;0.77;;;23.10;45.50;;;;;;3109604;28;20033;-44
2023/12/10 05:36:09;;;;;;;0.60;0.60;;;23.20;45.60;;;;;;3106849;28;20053;-47
2023/12/10 05:37:41;;;;;;;0.70;0.60;;;23.10;45.60;;;;;;3109877;28;20049;-42
2023/12/10 05:39:12;;;;;;;0.65;0.60;;;23.10;45.70;;;;;;3110115;28;20069;-44
2023/12/10 05:40:44;;;;;;;0.68;0.60;;;23.20;45.70;;;;;;3106560;28;20412;-43
2023/12/10 05:42:14;;;;;;;0.82;0.70;;;23.20;45.70;;;;;;3109237;28;20041;-43
2023/12/10 05:43:47;;;;;;;0.73;0.63;;;23.20;45.70;;;;;;3109871;28;20081;-43
2023/12/10 05:45:18;;;;;;;0.60;0.60;;;23.20;45.80;;;;;;3108771;28;20054;-45
2023/12/10 05:46:50;;;;;;;1.00;0.70;;;23.20;45.80;;;;;;3109627;28;20052;-42
2023/12/10 05:48:20;;;;;;;0.75;0.60;;;23.20;45.90;;;;;;3107399;28;20049;-43
2023/12/10 05:49:52;;;;;;;0.73;0.60;;;23.20;45.90;;;;;;3109155;28;20492;-43
2023/12/10 05:51:23;;;;;;;0.88;0.60;;;23.20;49.40;;;;;;3109681;28;20053;-44
2023/12/10 05:52:57;;;;;;;0.73;0.60;;;23.20;46.10;;;;;;3109273;28;20053;-43
2023/12/10 05:54:27;;;;;;;0.80;0.70;;;23.20;46.10;;;;;;3110041;28;20041;-42
2023/12/10 05:55:59;;;;;;;0.50;0.50;;;23.30;46.10;;;;;;3109730;28;20052;-42
2023/12/10 05:57:30;;;;;;;0.60;0.55;;;23.30;46.00;;;;;;3109094;28;20046;-43
2023/12/10 05:59:03;;;;;;;0.80;0.60;;;23.40;46.00;;;;;;3109595;28;20054;-48
2023/12/10 06:00:33;;;;;;;0.88;0.60;;;23.40;46.10;;;;;;3109222;28;20564;-43
2023/12/10 06:02:05;;;;;;;0.73;0.70;;;23.20;46.40;;;;;;3109561;28;20038;-43
2023/12/10 06:03:36;;;;;;;0.60;0.60;;;23.00;46.70;;;;;;3109713;28;20045;-42
2023/12/10 06:05:08;;;;;;;1.48;0.65;;;22.90;47.00;;;;;;3109896;28;20099;-42
2023/12/10 06:06:41;;;;;;;0.77;0.60;;;22.80;47.10;;;;;;3108936;28;20046;-42
2023/12/10 06:08:13;;;;;;;0.60;0.60;;;22.80;47.30;;;;;;3107056;28;20044;-46
2023/12/10 06:09:43;;;;;;;0.90;0.70;;;22.80;47.30;;;;;;3107537;28;20050;-43
2023/12/10 06:11:15;;;;;;;0.73;0.70;;;22.80;47.20;;;;;;3109529;28;20506;-42
2023/12/10 06:12:47;;;;;;;0.50;0.50;;;22.80;47.10;;;;;;3109112;28;20042;-42
2023/12/10 06:14:18;;;;;;;0.90;0.60;;;22.90;47.20;;;;;;3109423;28;20096;-45
2023/12/10 06:15:50;;;;;;;0.85;0.73;;;22.80;47.20;;;;;;3108707;28;20086;-46
2023/12/10 06:17:22;;;;;;;1.23;0.90;;;22.80;47.40;;;;;;3109369;28;20050;-42
2023/12/10 06:18:52;;;;;;;0.95;0.70;;;22.70;47.50;;;;;;3109711;28;20089;-42
2023/12/10 06:20:25;;;;;;;0.73;0.73;;;22.70;47.60;;;;;;3109325;28;20403;-42
2023/12/10 06:21:55;;;;;;;1.02;0.70;;;22.70;47.90;;;;;;3109523;28;20519;-43
2023/12/10 06:23:27;;;;;;;0.73;0.63;;;22.60;47.80;;;;;;3109734;28;20046;-42
2023/12/10 06:24:58;;;;;;;0.98;0.80;;;22.60;47.90;;;;;;3109712;28;20046;-43
2023/12/10 06:26:30;;;;;;;1.15;0.65;;;22.70;47.90;;;;;;3109548;28;20125;-42
2023/12/10 06:28:01;;;;;;;1.27;0.70;;;22.60;48.00;;;;;;3109787;28;20056;-42
2023/12/10 06:29:33;;;;;;;1.38;0.80;;;22.60;48.10;;;;;;3109455;28;20038;-43
2023/12/10 06:31:10;;;;;;;0.70;0.70;;;22.60;48.20;;;;;;3107826;28;20057;-44
2023/12/10 06:32:41;;;;;;;0.88;0.60;;;22.70;48.20;;;;;;3109053;28;20050;-43
2023/12/10 06:34:13;;;;;;;1.13;0.80;;;22.70;48.20;;;;;;3109450;28;20648;-45
2023/12/10 06:35:44;;;;;;;0.85;0.85;;;22.70;48.20;;;;;;3109552;28;20053;-44
2023/12/10 06:37:15;;;;;;;0.93;0.70;;;22.70;48.60;;;;;;3109002;28;20508;-43
2023/12/10 06:38:46;;;;;;;1.23;0.80;;;22.70;48.20;;;;;;3108926;28;20054;-43
2023/12/10 06:40:17;;;;;;;1.00;0.70;;;22.70;48.40;;;;;;3109351;28;20046;-43
2023/12/10 06:41:48;;;;;;;1.08;0.88;;;22.70;48.30;;;;;;3105986;28;20054;-46
2023/12/10 06:43:21;;;;;;;1.25;0.70;;;22.70;48.40;;;;;;3108255;28;20068;-43
2023/12/10 06:44:53;;;;;;;0.68;0.60;;;22.70;48.40;;;;;;3108604;28;20137;-42
2023/12/10 06:46:25;;;;;;;0.85;0.70;;;22.70;48.50;;;;;;3109002;28;20049;-42
2023/12/10 06:47:55;;;;;;;1.25;0.77;;;22.70;48.80;;;;;;3108913;28;20057;-42
2023/12/10 06:49:27;;;;;;;1.48;0.82;;;22.70;48.60;;;;;;3108496;28;20487;-42
2023/12/10 06:50:58;;;;;;;1.13;0.70;;;22.80;48.30;;;;;;3108899;28;20050;-44
2023/12/10 06:52:30;;;;;;;2.90;0.70;;;22.80;48.00;;;;;;3108004;28;20053;-44
2023/12/10 06:54:01;;;;;;;0.68;0.60;;;22.80;47.70;;;;;;3109450;28;20042;-44
2023/12/10 06:55:32;;;;;;;0.93;0.60;;;22.80;47.60;;;;;;3108646;28;20053;-42
2023/12/10 06:57:04;;;;;;;1.10;0.90;;;22.90;47.40;;;;;;3109129;28;20049;-43
2023/12/10 06:58:36;;;;;;;1.13;0.70;;;23.00;47.10;;;;;;3106973;28;20050;-46
2023/12/10 07:00:10;;;;;;;1.85;0.77;;;22.90;47.10;;;;;;3107804;28;20061;-42
2023/12/10 07:01:41;;;;;;;0.88;0.70;;;23.00;47.00;;;;;;3109053;28;20050;-43
2023/12/10 07:03:12;;;;;;;0.70;0.70;;;23.00;47.00;;;;;;3108267;28;20049;-46
2023/12/10 07:04:43;;;;;;;1.23;0.70;;;22.90;46.90;;;;;;3105975;28;20601;-43
2023/12/10 07:06:14;;;;;;;1.77;0.80;;;23.00;48.70;;;;;;3105139;28;20045;-42
2023/12/10 07:07:45;;;;;;;0.70;0.70;;;22.90;47.10;;;;;;3107418;28;20107;-42
2023/12/10 07:09:17;;;;;;;1.65;0.80;;;22.90;47.20;;;;;;3107639;28;20069;-42
2023/12/10 07:10:47;;;;;;;1.02;0.70;;;22.90;47.30;;;;;;3107827;28;20060;-45
2023/12/10 07:12:19;;;;;;;1.30;0.75;;;22.80;47.50;;;;;;3105872;28;20044;-43
2023/12/10 07:13:53;;;;;;;1.50;0.90;;;22.80;47.60;;;;;;3109469;28;20057;-47
2023/12/10 07:15:25;;;;;;;1.17;0.73;;;22.80;47.60;;;;;;3108248;28;20061;-43
2023/12/10 07:16:56;;;;;;;1.08;0.75;;;22.90;47.60;;;;;;3111532;28;20046;-42
2023/12/10 07:18:27;;;;;;;1.33;0.77;;;22.90;47.70;;;;;;3109852;28;20046;-43
2023/12/10 07:19:59;;;;;;;2.80;0.80;;;22.90;47.60;;;;;;3111423;28;20530;-42
2023/12/10 07:21:30;;;;;;;1.08;0.82;;;22.90;47.80;;;;;;3109015;28;20710;-43
2023/12/10 07:23:02;;;;;;;1.08;0.80;;;22.90;48.00;;;;;;3110009;28;20046;-43
2023/12/10 07:24:32;;;;;;;1.02;0.75;;;22.90;48.00;;;;;;3108647;28;20045;-42
2023/12/10 07:26:04;;;;;;;1.52;0.80;;;22.90;47.90;;;;;;3109856;28;20049;-42
2023/12/10 07:27:35;;;;;;;2.05;0.85;;;22.90;47.80;;;;;;3108433;28;20069;-43
2023/12/10 07:29:07;;;;;;;0.70;0.70;;;22.90;47.90;;;;;;3106770;28;20046;-43
2023/12/10 07:30:39;;;;;;;2.50;0.88;;;22.90;48.00;;;;;;3109872;28;20061;-42
2023/12/10 07:32:10;;;;;;;1.65;0.80;;;22.90;48.00;;;;;;3107534;28;20081;-44
2023/12/10 07:33:41;;;;;;;1.73;0.70;;;22.90;48.00;;;;;;3109426;28;20069;-48
2023/12/10 07:35:12;;;;;;;1.02;0.77;;;23.00;48.00;;;;;;3109921;28;20052;-43
2023/12/10 07:36:43;;;;;;;1.20;0.77;;;23.00;48.10;;;;;;3111185;28;20481;-42
2023/12/10 07:38:15;;;;;;;0.77;0.70;;;23.00;47.50;;;;;;3109711;28;20057;-42
2023/12/10 07:39:45;;;;;;;2.80;0.80;;;23.00;48.00;;;;;;3110895;28;20053;-43
2023/12/10 07:41:17;;;;;;;1.15;0.90;;;23.00;48.00;;;;;;3107017;28;20046;-42
2023/12/10 07:42:48;;;;;;;1.30;0.80;;;23.00;48.00;;;;;;3108201;28;20049;-42
2023/12/10 07:44:19;;;;;;;1.60;0.70;;;23.00;48.10;;;;;;3110605;28;20057;-44
2023/12/10 07:45:51;;;;;;;4.15;1.00;;;23.10;48.10;;;;;;3108075;28;20046;-42
2023/12/10 07:47:23;;;;;;;2.13;0.90;;;23.10;48.10;;;;;;3110518;28;20104;-43
2023/12/10 07:48:54;;;;;;;3.33;0.85;;;23.10;48.10;;;;;;3109746;28;20054;-43
2023/12/10 07:50:25;;;;;;;2.30;0.98;;;23.10;48.10;;;;;;3106154;28;20050;-43
2023/12/10 07:51:56;;;;;;;3.65;1.10;;;23.10;48.10;;;;;;3107414;28;20080;-42
2023/12/10 07:53:28;;;;;;;5.68;1.05;;;23.20;47.40;;;;;;3108328;28;20420;-42
2023/12/10 07:54:58;;;;;;;3.22;1.15;;;23.20;46.90;;;;;;3109825;28;20065;-42
2023/12/10 07:56:33;;;;;;;4.43;1.30;;;23.20;46.70;;;;;;3110063;28;20393;-43